createdAt,value
2023-05-01T00:00:31.847Z,12.2
2023-05-01T00:05:31.850Z,12.4
2023-05-01T00:10:31.841Z,12.2
2023-05-01T00:15:31.859Z,12.1
2023-05-01T00:20:31.844Z,12.2
2023-05-01T00:25:31.833Z,12.1
2023-05-01T00:30:31.861Z,12.2
2023-05-01T00:35:31.858Z,12.1
2023-05-01T00:45:31.892Z,11.9
2023-05-01T00:50:31.876Z,11.8
2023-05-01T00:55:31.843Z,11.9
2023-05-01T01:00:31.893Z,11.7
2023-05-01T01:15:32.047Z,11.8
2023-05-01T01:20:31.882Z,11.9
2023-05-01T01:30:31.881Z,11.8
2023-05-01T01:35:31.874Z,11.7
2023-05-01T01:40:31.872Z,12.1
2023-05-01T01:45:31.888Z,11.7
2023-05-01T01:50:31.901Z,11.6
2023-05-01T01:55:31.878Z,11.9
2023-05-01T02:00:31.875Z,11.6
2023-05-01T02:10:31.976Z,11.5
2023-05-01T02:15:31.894Z,11.7
2023-05-01T02:20:31.874Z,11.9
2023-05-01T02:25:31.911Z,11.7
2023-05-01T02:30:31.901Z,11.6
2023-05-01T02:35:31.884Z,11.8
2023-05-01T02:40:31.927Z,11.7
2023-05-01T02:55:31.914Z,11.8
2023-05-01T03:00:31.899Z,11.6
2023-05-01T03:05:31.884Z,11.4
2023-05-01T03:10:31.895Z,11.7
2023-05-01T03:15:31.919Z,11.6
2023-05-01T03:20:31.913Z,11.5
2023-05-01T03:30:31.925Z,11.8
2023-05-01T03:35:31.967Z,11.7
2023-05-01T03:45:31.934Z,11.6
2023-05-01T03:50:31.917Z,11.7
2023-05-01T03:55:31.911Z,11.6
2023-05-01T04:00:31.965Z,11.3
2023-05-01T04:05:31.927Z,11.6
2023-05-01T04:10:31.916Z,11.7
2023-05-01T04:20:31.943Z,11.4
2023-05-01T04:30:31.927Z,11.5
2023-05-01T04:40:31.915Z,11.6
2023-05-01T04:45:31.949Z,11.3
2023-05-01T04:55:31.920Z,11.4
2023-05-01T05:00:31.940Z,11.5
2023-05-01T05:05:31.944Z,11.4
2023-05-01T05:10:31.947Z,11.6
2023-05-01T05:15:31.938Z,11.7
2023-05-01T05:20:31.952Z,12.0
2023-05-01T05:25:31.961Z,12.1
2023-05-01T05:30:31.953Z,12.2
2023-05-01T05:50:31.953Z,12.0
2023-05-01T05:55:31.943Z,12.3
2023-05-01T06:00:32.007Z,12.4
2023-05-01T06:05:32.070Z,12.8
2023-05-01T06:10:32.021Z,13.1
2023-05-01T06:15:33.237Z,12.9
2023-05-01T06:20:31.967Z,13.0
2023-05-01T06:25:32.018Z,13.2
2023-05-01T06:30:31.970Z,13.1
2023-05-01T06:35:31.970Z,12.8
2023-05-01T06:40:31.975Z,12.7
2023-05-01T06:45:31.954Z,12.9
2023-05-01T06:50:31.967Z,13.1
2023-05-01T06:55:33.727Z,13.2
2023-05-01T07:00:32.015Z,13.1
2023-05-01T07:05:31.977Z,13.3
2023-05-01T07:10:31.972Z,13.6
2023-05-01T07:20:31.998Z,13.8
2023-05-01T07:25:32.009Z,13.7
2023-05-01T07:30:32.019Z,14.2
2023-05-01T07:35:32.011Z,14.6
2023-05-01T07:40:32.000Z,15.2
2023-05-01T07:45:32.033Z,16.0
2023-05-01T07:55:32.013Z,16.3
2023-05-01T08:00:31.982Z,16.2
2023-05-01T08:05:32.002Z,16.1
2023-05-01T08:10:31.997Z,16.6
2023-05-01T08:15:32.027Z,16.5
2023-05-01T08:20:32.045Z,16.6
2023-05-01T08:25:31.992Z,16.9
2023-05-01T08:30:32.032Z,17.1
2023-05-01T08:35:32.010Z,17.7
2023-05-01T08:40:32.004Z,17.9
2023-05-01T08:45:32.028Z,18.1
2023-05-01T08:50:32.030Z,17.5
2023-05-01T09:00:32.019Z,17.8
2023-05-01T09:05:32.025Z,17.7
2023-05-01T09:10:33.019Z,17.9
2023-05-01T09:15:32.022Z,18.3
2023-05-01T09:20:32.031Z,18.4
2023-05-01T09:25:32.023Z,18.5
2023-05-01T09:30:32.030Z,18.8
2023-05-01T09:35:32.022Z,19.3
2023-05-01T09:40:32.037Z,19.6
2023-05-01T09:45:32.022Z,19.8
2023-05-01T09:50:32.033Z,20.6
2023-05-01T09:55:32.066Z,21.4
2023-05-01T10:00:32.034Z,22.0
2023-05-01T10:05:32.045Z,22.4
2023-05-01T10:10:32.036Z,23.2
2023-05-01T10:15:32.041Z,25.6
2023-05-01T10:20:32.067Z,28.0
2023-05-01T10:25:32.054Z,30.1
2023-05-01T10:30:32.036Z,28.0
2023-05-01T10:35:32.047Z,26.4
2023-05-01T10:40:32.064Z,27.9
2023-05-01T10:45:33.832Z,27.4
2023-05-01T10:50:32.042Z,30.0
2023-05-01T10:55:32.062Z,31.3
2023-05-01T11:00:32.064Z,28.3
2023-05-01T11:05:38.481Z,30.4
2023-05-01T11:10:32.055Z,31.1
2023-05-01T11:15:32.055Z,31.3
2023-05-01T11:20:32.068Z,29.2
2023-05-01T11:30:32.070Z,32.3
2023-05-01T11:35:32.078Z,32.7
2023-05-01T11:40:32.090Z,31.2
2023-05-01T11:45:32.156Z,34.0
2023-05-01T11:50:32.098Z,34.5
2023-05-01T11:55:32.112Z,32.9
2023-05-01T12:00:32.085Z,35.1
2023-05-01T12:05:32.122Z,36.4
2023-05-01T12:10:34.042Z,35.9
2023-05-01T12:15:32.113Z,30.0
2023-05-01T12:20:32.126Z,24.5
2023-05-01T12:25:32.083Z,23.0
2023-05-01T12:30:32.097Z,22.5
2023-05-01T12:35:32.106Z,22.7
2023-05-01T12:45:32.099Z,23.3
2023-05-01T13:00:32.093Z,23.6
2023-05-01T13:05:32.142Z,25.7
2023-05-01T13:10:32.123Z,28.5
2023-05-01T13:15:32.135Z,31.0
2023-05-01T13:20:32.102Z,32.4
2023-05-01T13:25:32.112Z,32.5
2023-05-01T13:30:32.158Z,32.3
2023-05-01T13:35:32.145Z,32.2
2023-05-01T13:40:32.106Z,31.9
2023-05-01T13:45:32.202Z,30.0
2023-05-01T13:50:32.131Z,27.0
2023-05-01T13:55:32.135Z,27.5
2023-05-01T14:00:32.121Z,29.5
2023-05-01T14:05:32.124Z,27.7
2023-05-01T14:10:32.133Z,26.5
2023-05-01T14:15:32.124Z,27.5
2023-05-01T14:20:32.144Z,25.8
2023-05-01T14:25:32.127Z,24.0
2023-05-01T14:30:32.116Z,23.2
2023-05-01T14:35:32.128Z,22.0
2023-05-01T14:40:32.143Z,21.5
2023-05-01T14:45:32.163Z,22.1
2023-05-01T14:50:32.161Z,21.7
2023-05-01T14:55:32.151Z,21.5
2023-05-01T15:00:32.166Z,20.8
2023-05-01T15:10:32.155Z,21.5
2023-05-01T15:15:32.151Z,21.0
2023-05-01T15:25:32.175Z,20.7
2023-05-01T15:30:32.174Z,20.6
2023-05-01T15:35:32.185Z,20.8
2023-05-01T15:45:32.260Z,20.6
2023-05-01T15:50:32.183Z,20.9
2023-05-01T15:55:32.196Z,20.5
2023-05-01T16:00:32.171Z,22.0
2023-05-01T16:05:32.187Z,21.4
2023-05-01T16:10:32.198Z,22.0
2023-05-01T16:15:32.203Z,27.5
2023-05-01T16:20:32.179Z,29.2
2023-05-01T16:25:32.202Z,25.8
2023-05-01T16:30:32.178Z,22.1
2023-05-01T16:35:32.193Z,21.6
2023-05-01T16:40:32.240Z,20.8
2023-05-01T16:45:32.200Z,19.7
2023-05-01T16:50:32.219Z,20.0
2023-05-01T16:55:32.196Z,20.2
2023-05-01T17:00:32.206Z,20.5
2023-05-01T17:05:32.245Z,20.2
2023-05-01T17:10:32.210Z,20.4
2023-05-01T17:15:32.287Z,19.0
2023-05-01T17:25:32.235Z,18.9
2023-05-01T17:30:32.212Z,18.4
2023-05-01T17:35:32.208Z,18.6
2023-05-01T17:40:33.512Z,18.4
2023-05-01T17:50:32.220Z,18.5
2023-05-01T17:55:32.373Z,18.0
2023-05-01T18:00:32.238Z,18.1
2023-05-01T18:05:32.256Z,17.8
2023-05-01T18:10:32.284Z,17.6
2023-05-01T18:15:32.241Z,17.7
2023-05-01T18:20:32.224Z,17.4
2023-05-01T18:25:32.232Z,17.2
2023-05-01T18:40:32.255Z,17.1
2023-05-01T18:45:32.260Z,16.8
2023-05-01T18:50:32.245Z,16.5
2023-05-01T18:55:32.269Z,16.6
2023-05-01T19:00:32.279Z,16.4
2023-05-01T19:05:32.293Z,16.1
2023-05-01T19:20:32.258Z,15.8
2023-05-01T19:25:32.272Z,15.9
2023-05-01T19:35:32.260Z,15.6
2023-05-01T19:40:32.280Z,15.5
2023-05-01T19:45:32.363Z,15.4
2023-05-01T19:50:33.384Z,15.2
2023-05-01T19:55:32.295Z,14.9
2023-05-01T20:00:32.276Z,14.6
2023-05-01T20:05:32.326Z,14.7
2023-05-01T20:10:32.297Z,14.6
2023-05-01T20:15:32.260Z,14.5
2023-05-01T20:20:32.275Z,14.4
2023-05-01T20:25:32.289Z,14.3
2023-05-01T20:30:32.297Z,14.2
2023-05-01T20:35:32.278Z,14.1
2023-05-01T20:45:32.292Z,13.8
2023-05-01T20:55:32.314Z,13.7
2023-05-01T21:00:32.290Z,13.5
2023-05-01T21:05:32.303Z,13.4
2023-05-01T21:10:32.317Z,13.3
2023-05-01T21:15:32.311Z,13.2
2023-05-01T21:20:32.310Z,13.4
2023-05-01T21:25:32.311Z,13.3
2023-05-01T21:35:32.316Z,13.1
2023-05-01T21:45:32.311Z,12.9
2023-05-01T21:50:32.309Z,12.6
2023-05-01T21:55:32.329Z,12.8
2023-05-01T22:00:32.335Z,12.6
2023-05-01T22:10:32.316Z,12.5
2023-05-01T22:20:32.330Z,13.2
2023-05-01T22:40:32.342Z,13.3
2023-05-01T22:50:32.366Z,12.9
2023-05-01T22:55:32.359Z,12.8
2023-05-01T23:00:32.360Z,12.6
2023-05-01T23:05:32.339Z,12.7
2023-05-01T23:15:32.420Z,12.9
2023-05-01T23:20:32.353Z,12.7
2023-05-01T23:25:32.356Z,12.8
2023-05-01T23:30:32.386Z,12.7
2023-05-01T23:35:32.349Z,12.6
2023-05-01T23:40:32.356Z,12.8
2023-05-01T23:45:32.361Z,12.7
2023-05-01T23:55:32.380Z,13.1
